createdAt,value
2023-05-20T04:01:31.379Z,99.90
2023-05-20T04:04:03.320Z,99.90
2023-05-20T04:06:35.040Z,99.90
2023-05-20T04:09:06.736Z,99.90
2023-05-20T04:11:38.515Z,99.90
2023-05-20T04:14:10.232Z,99.90
2023-05-20T04:16:43.338Z,99.90
2023-05-20T04:19:15.111Z,99.90
2023-05-20T04:21:46.906Z,99.90
2023-05-20T04:24:18.622Z,99.90
2023-05-20T04:26:50.329Z,99.90
2023-05-20T04:29:22.046Z,99.90
2023-05-20T04:31:55.107Z,99.90
2023-05-20T04:34:29.328Z,99.90
2023-05-20T04:37:01.014Z,99.90
2023-05-20T04:39:32.729Z,99.90
2023-05-20T04:42:05.092Z,99.90
2023-05-20T04:44:36.843Z,99.90
2023-05-20T04:47:09.919Z,99.90
2023-05-20T04:49:41.695Z,99.90
2023-05-20T04:54:45.497Z,99.90
2023-05-20T04:57:17.247Z,77.00
2023-05-20T04:59:48.935Z,80.10
2023-05-20T05:04:54.127Z,73.80
2023-05-20T05:07:25.848Z,51.10
2023-05-20T05:09:57.519Z,40.90
2023-05-20T05:12:29.217Z,22.70
2023-05-20T05:15:00.957Z,27.80
2023-05-20T05:17:34.046Z,40.80
2023-05-20T05:20:07.295Z,48.60
2023-05-20T05:22:39.021Z,63.10
2023-05-20T05:25:11.587Z,89.20
2023-05-20T05:27:43.376Z,92.10
2023-05-20T05:30:15.125Z,96.90
2023-05-20T05:32:48.346Z,96.30
2023-05-20T05:35:20.298Z,95.80
2023-05-20T05:37:52.010Z,97.10
2023-05-20T05:40:23.760Z,99.00
2023-05-20T05:42:55.484Z,98.10
2023-05-20T05:45:27.228Z,99.90
2023-05-20T05:48:00.375Z,99.20
2023-05-20T05:50:32.141Z,98.70
2023-05-20T05:53:03.858Z,99.90
2023-05-20T05:55:36.210Z,99.90
2023-05-20T05:58:07.962Z,99.90
2023-05-20T06:00:39.676Z,99.90
2023-05-20T06:03:12.909Z,99.90
2023-05-20T06:05:45.635Z,99.90
2023-05-20T06:08:17.428Z,99.90
2023-05-20T06:10:49.253Z,99.90
2023-05-20T06:13:20.987Z,91.30
2023-05-20T06:15:52.722Z,88.90
2023-05-20T06:18:25.844Z,94.80
2023-05-20T06:20:57.677Z,94.50
2023-05-20T06:23:29.410Z,93.80
2023-05-20T06:26:01.160Z,94.30
2023-05-20T06:28:32.945Z,95.60
2023-05-20T06:31:04.710Z,95.50
2023-05-20T06:33:37.824Z,96.90
2023-05-20T06:36:09.584Z,98.70
2023-05-20T06:38:41.320Z,97.40
2023-05-20T06:41:13.062Z,96.10
2023-05-20T06:43:44.795Z,94.70
2023-05-20T06:46:16.539Z,93.20
2023-05-20T06:48:49.657Z,94.80
2023-05-20T06:51:21.575Z,95.60
2023-05-20T06:53:53.321Z,95.10
2023-05-20T06:56:25.037Z,94.10
2023-05-20T06:58:56.772Z,96.50
2023-05-20T07:01:28.476Z,95.60
2023-05-20T07:04:01.624Z,95.80
2023-05-20T07:06:33.389Z,98.50
2023-05-20T07:09:05.161Z,94.40
2023-05-20T07:11:36.918Z,95.40
2023-05-20T07:14:08.613Z,90.70
2023-05-20T07:16:40.411Z,78.40
2023-05-20T07:19:13.558Z,71.50
2023-05-20T07:21:45.342Z,69.20
2023-05-20T07:24:17.128Z,63.00
2023-05-20T07:26:48.862Z,54.80
2023-05-20T07:29:20.570Z,53.10
2023-05-20T07:31:52.367Z,47.40
2023-05-20T07:34:25.499Z,41.50
2023-05-20T07:36:57.413Z,29.80
2023-05-20T07:42:01.257Z,24.60
2023-05-20T07:44:33.013Z,16.50
2023-05-20T07:47:05.157Z,12.20
2023-05-20T07:49:38.262Z,14.90
2023-05-20T07:52:09.999Z,16.90
2023-05-20T07:54:41.759Z,17.40
2023-05-20T07:57:13.496Z,19.90
2023-05-20T07:59:45.294Z,25.00
2023-05-20T08:02:17.027Z,27.90
2023-05-20T08:04:50.146Z,29.80
2023-05-20T08:07:21.871Z,26.60
2023-05-20T08:09:53.590Z,27.40
2023-05-20T08:12:25.406Z,27.10
2023-05-20T08:14:57.134Z,27.80
2023-05-20T08:17:28.883Z,27.60
2023-05-20T08:20:02.014Z,28.60
2023-05-20T08:22:33.841Z,26.90
2023-05-20T08:25:08.337Z,28.90
2023-05-20T08:27:40.103Z,35.60
2023-05-20T08:30:12.236Z,30.70
2023-05-20T08:32:44.025Z,25.70
2023-05-20T08:35:17.215Z,20.20
2023-05-20T08:37:48.954Z,22.20
2023-05-20T08:40:20.958Z,23.50
2023-05-20T08:42:52.712Z,23.30
2023-05-20T08:45:24.439Z,25.90
2023-05-20T08:47:56.176Z,26.60
2023-05-20T08:50:29.259Z,23.50
2023-05-20T08:53:01.094Z,24.00
2023-05-20T08:55:37.050Z,19.30
2023-05-20T08:58:09.324Z,16.80
2023-05-20T09:00:41.044Z,13.90
2023-05-20T09:03:12.826Z,12.80
2023-05-20T09:05:46.340Z,11.60
2023-05-20T09:08:18.057Z,12.50
2023-05-20T09:10:52.019Z,13.40
2023-05-20T09:13:24.083Z,17.00
2023-05-20T09:15:55.843Z,17.20
2023-05-20T09:18:27.692Z,14.30
2023-05-20T09:21:04.716Z,11.20
2023-05-20T09:23:37.030Z,10.20
2023-05-20T09:26:08.918Z,6.30
2023-05-20T09:28:40.666Z,7.40
2023-05-20T09:31:13.837Z,8.20
2023-05-20T09:33:45.574Z,11.50
2023-05-20T09:36:18.637Z,10.30
2023-05-20T09:38:52.050Z,12.60
2023-05-20T09:41:24.121Z,8.40
2023-05-20T09:43:55.822Z,8.20
2023-05-20T09:46:27.635Z,13.10
2023-05-20T09:48:59.545Z,13.70
2023-05-20T09:51:32.644Z,12.40
2023-05-20T09:54:04.641Z,13.10
2023-05-20T09:56:36.378Z,11.70
2023-05-20T09:59:08.077Z,7.40
2023-05-20T10:01:39.915Z,7.50
2023-05-20T10:06:56.103Z,7.80
2023-05-20T10:09:37.540Z,10.80
2023-05-20T10:12:13.732Z,15.70
2023-05-20T10:17:39.136Z,14.70
2023-05-20T10:20:10.906Z,15.40
2023-05-20T10:22:43.971Z,19.70
2023-05-20T10:25:25.040Z,23.20
2023-05-20T10:28:07.895Z,20.90
2023-05-20T10:30:49.475Z,18.80
2023-05-20T10:33:21.242Z,20.80
2023-05-20T10:35:53.055Z,20.90
2023-05-20T10:38:26.187Z,25.30
2023-05-20T10:41:08.240Z,24.40
2023-05-20T10:43:39.961Z,23.90
2023-05-20T10:46:30.792Z,23.20
2023-05-20T10:49:17.172Z,23.70
2023-05-20T10:51:48.974Z,21.60
2023-05-20T10:54:22.073Z,23.10
2023-05-20T10:56:54.079Z,22.40
2023-05-20T10:59:28.065Z,23.40
2023-05-20T11:02:00.198Z,23.90
2023-05-20T11:04:31.957Z,26.90
2023-05-20T11:07:03.949Z,28.00
2023-05-20T11:09:37.018Z,23.60
2023-05-20T11:12:08.756Z,23.50
2023-05-20T11:14:40.505Z,24.70
2023-05-20T11:17:12.227Z,27.00
2023-05-20T11:19:43.987Z,27.10
2023-05-20T11:22:15.686Z,22.20
2023-05-20T11:24:48.747Z,25.40
2023-05-20T11:27:20.455Z,24.00
2023-05-20T11:29:52.179Z,26.10
2023-05-20T11:32:23.920Z,22.60
2023-05-20T11:34:55.671Z,21.90
2023-05-20T11:37:27.417Z,22.50
2023-05-20T11:40:08.097Z,24.50
2023-05-20T11:42:39.831Z,24.40
2023-05-20T11:45:13.663Z,33.20
2023-05-20T11:47:45.423Z,33.50
2023-05-20T11:50:17.387Z,40.80
2023-05-20T11:52:57.039Z,42.50
2023-05-20T11:55:31.321Z,37.70
2023-05-20T11:58:03.433Z,30.70
2023-05-20T12:00:46.803Z,32.70
2023-05-20T12:03:22.413Z,29.00
2023-05-20T12:05:54.939Z,29.50
2023-05-20T12:08:26.665Z,33.70
2023-05-20T12:10:59.758Z,31.00
2023-05-20T12:13:32.606Z,36.50
2023-05-20T12:16:06.408Z,41.00
2023-05-20T12:18:38.158Z,42.40
2023-05-20T12:21:09.876Z,38.00
2023-05-20T12:23:41.562Z,35.10
2023-05-20T12:26:14.643Z,37.90
2023-05-20T12:28:46.381Z,30.40
2023-05-20T12:31:18.139Z,31.90
2023-05-20T12:33:50.027Z,37.40
2023-05-20T12:36:21.729Z,38.40
2023-05-20T12:38:53.438Z,38.60
2023-05-20T12:41:26.502Z,36.20
2023-05-20T12:43:58.220Z,35.20
2023-05-20T12:46:29.960Z,29.30
2023-05-20T12:49:01.737Z,29.20
2023-05-20T12:51:33.446Z,26.20
2023-05-20T12:54:06.196Z,26.30
2023-05-20T12:56:39.268Z,25.40
2023-05-20T12:59:10.984Z,27.70
2023-05-20T13:01:42.734Z,28.80
2023-05-20T13:04:14.597Z,27.80
2023-05-20T13:06:46.356Z,26.50
2023-05-20T13:09:18.075Z,24.90
2023-05-20T13:11:51.154Z,26.80
2023-05-20T13:14:22.873Z,26.20
2023-05-20T13:16:54.659Z,25.10
2023-05-20T13:19:26.596Z,25.20
2023-05-20T13:21:58.375Z,26.10
2023-05-20T13:24:30.146Z,24.30
2023-05-20T13:27:03.265Z,25.90
2023-05-20T13:29:34.987Z,26.10
2023-05-20T13:32:07.161Z,27.40
2023-05-20T13:34:38.937Z,27.50
2023-05-20T13:37:10.805Z,28.00
2023-05-20T13:39:42.506Z,28.40
2023-05-20T13:42:15.535Z,27.40
2023-05-20T13:44:48.353Z,27.30
2023-05-20T13:47:20.072Z,28.20
2023-05-20T13:49:51.819Z,29.10
2023-05-20T13:52:23.520Z,29.20
2023-05-20T13:54:55.243Z,30.50
2023-05-20T13:57:28.331Z,31.50
2023-05-20T14:00:00.057Z,28.60
2023-05-20T14:02:32.062Z,29.30
2023-05-20T14:05:04.379Z,29.80
2023-05-20T14:07:36.217Z,29.90
2023-05-20T14:10:08.618Z,30.30
2023-05-20T14:12:41.746Z,32.40
2023-05-20T14:15:13.707Z,28.30
2023-05-20T14:17:45.652Z,31.40
2023-05-20T14:20:17.430Z,31.10
2023-05-20T14:22:49.143Z,29.60
2023-05-20T14:25:20.868Z,31.40
2023-05-20T14:27:53.927Z,31.20
2023-05-20T14:30:25.741Z,37.00
2023-05-20T14:32:57.570Z,35.00
2023-05-20T14:35:29.347Z,32.10
2023-05-20T14:38:01.050Z,27.50
2023-05-20T14:40:33.014Z,27.80
2023-05-20T14:43:06.187Z,28.70
2023-05-20T14:45:37.944Z,29.20
2023-05-20T14:48:09.636Z,28.10
2023-05-20T14:50:41.387Z,32.50
2023-05-20T14:53:13.150Z,34.60
2023-05-20T14:55:44.896Z,35.60
2023-05-20T14:58:20.214Z,37.90
2023-05-20T15:00:52.914Z,37.90
2023-05-20T15:03:24.702Z,38.60
2023-05-20T15:05:56.446Z,34.30
2023-05-20T15:08:28.166Z,36.60
2023-05-20T15:10:59.897Z,39.50
2023-05-20T15:13:32.981Z,39.50
2023-05-20T15:16:05.439Z,41.20
2023-05-20T15:18:37.148Z,43.80
2023-05-20T15:21:08.861Z,41.30
2023-05-20T15:23:40.570Z,41.60
2023-05-20T15:26:12.295Z,42.40
2023-05-20T15:28:45.336Z,43.70
2023-05-20T15:31:17.058Z,42.50
2023-05-20T15:33:48.852Z,41.10
2023-05-20T15:36:20.627Z,41.60
2023-05-20T15:38:52.551Z,40.60
2023-05-20T15:41:24.427Z,43.90
2023-05-20T15:43:57.500Z,43.10
2023-05-20T15:46:29.261Z,40.60
2023-05-20T15:49:01.101Z,43.00
2023-05-20T15:51:33.020Z,42.00
2023-05-20T15:54:04.860Z,36.90
2023-05-20T15:56:36.636Z,39.10
2023-05-20T15:59:09.833Z,42.70
2023-05-20T16:01:41.576Z,43.30
2023-05-20T16:04:13.390Z,45.40
2023-05-20T16:06:45.141Z,45.60
2023-05-20T16:09:16.870Z,48.00
2023-05-20T16:11:48.605Z,50.20
2023-05-20T16:14:21.678Z,54.40
2023-05-20T16:16:53.455Z,56.60
2023-05-20T16:19:25.211Z,56.20
2023-05-20T16:21:56.939Z,60.10
2023-05-20T16:24:28.652Z,59.50
2023-05-20T16:27:00.360Z,69.20
2023-05-20T16:29:33.524Z,69.40
2023-05-20T16:32:05.923Z,67.80
2023-05-20T16:34:37.650Z,70.10
2023-05-20T16:37:09.365Z,70.10
2023-05-20T16:39:41.085Z,70.50
2023-05-20T16:42:12.793Z,75.00
2023-05-20T16:44:45.957Z,73.20
2023-05-20T16:47:17.664Z,75.70
2023-05-20T16:49:49.398Z,79.10
2023-05-20T16:52:21.219Z,76.10
2023-05-20T16:54:52.958Z,74.90
2023-05-20T16:57:24.686Z,77.60
2023-05-20T16:59:57.825Z,81.80
2023-05-20T17:02:29.886Z,78.30
2023-05-20T17:05:01.655Z,84.40
2023-05-20T17:07:33.401Z,84.40
2023-05-20T17:10:05.879Z,86.20
2023-05-20T17:12:37.652Z,86.50
2023-05-20T17:15:11.093Z,87.10
2023-05-20T17:17:42.838Z,85.10
2023-05-20T17:20:14.658Z,83.90
2023-05-20T17:22:46.410Z,87.10
2023-05-20T17:25:18.133Z,88.60
2023-05-20T17:27:49.855Z,90.10
2023-05-20T17:30:22.914Z,91.10
2023-05-20T17:32:54.849Z,91.80
2023-05-20T17:35:26.665Z,92.10
2023-05-20T17:37:58.388Z,94.30
2023-05-20T17:40:30.207Z,94.30
2023-05-20T17:45:35.390Z,97.00
2023-05-20T17:48:08.759Z,97.00
2023-05-20T17:50:42.625Z,98.30
2023-05-20T17:53:14.478Z,99.30
2023-05-20T17:55:46.211Z,99.90
2023-05-20T17:58:17.974Z,99.90
2023-05-20T18:00:51.086Z,99.90
2023-05-20T18:03:23.078Z,99.90
2023-05-20T18:05:55.976Z,99.10
2023-05-20T18:08:28.012Z,99.90
2023-05-20T18:10:59.770Z,99.90
2023-05-20T18:13:31.509Z,99.90
2023-05-20T18:16:05.416Z,99.90
2023-05-20T18:18:37.191Z,99.90
2023-05-20T18:21:08.900Z,99.90
2023-05-20T18:23:40.628Z,99.90
2023-05-20T18:26:12.369Z,98.70
2023-05-20T18:28:44.094Z,99.90
2023-05-20T18:31:17.204Z,99.90
2023-05-20T18:33:48.951Z,98.50
2023-05-20T18:36:20.672Z,99.90
2023-05-20T18:38:52.448Z,99.90
2023-05-20T18:41:27.228Z,99.90
2023-05-20T18:44:07.358Z,99.90
2023-05-20T18:46:40.425Z,99.90
2023-05-20T18:49:12.217Z,99.90
2023-05-20T18:51:43.948Z,99.90
2023-05-20T18:54:15.664Z,99.90
2023-05-20T18:56:47.388Z,99.90
2023-05-20T18:59:19.278Z,99.90
2023-05-20T19:01:52.405Z,99.90
2023-05-20T19:04:24.196Z,99.90
2023-05-20T19:06:55.938Z,99.90
2023-05-20T19:09:27.692Z,99.90
2023-05-20T19:11:59.428Z,99.90
2023-05-20T19:14:31.179Z,99.90
2023-05-20T19:17:04.458Z,99.90
2023-05-20T19:19:36.241Z,99.90
2023-05-20T19:22:08.197Z,99.90
2023-05-20T19:24:39.949Z,99.90
2023-05-20T19:27:11.702Z,99.90
2023-05-20T19:29:43.450Z,99.90
2023-05-20T19:32:16.530Z,99.90
2023-05-20T19:34:48.247Z,99.90
2023-05-20T19:37:22.345Z,99.90
2023-05-20T19:39:54.897Z,99.90
2023-05-20T19:42:26.678Z,99.90
2023-05-20T19:44:58.411Z,99.90
2023-05-20T19:47:31.548Z,99.90
2023-05-20T19:50:03.441Z,99.90
2023-05-20T19:52:35.344Z,99.90
2023-05-20T19:55:07.519Z,99.90
2023-05-20T19:57:39.217Z,99.90
2023-05-20T20:00:11.991Z,99.90
2023-05-20T20:02:45.117Z,99.90
2023-05-20T20:05:16.987Z,99.90
2023-05-20T20:07:48.707Z,99.90
2023-05-20T20:10:20.508Z,99.90
2023-05-20T20:12:52.270Z,99.90
2023-05-20T20:15:23.997Z,99.90
2023-05-20T20:17:57.135Z,99.90
2023-05-20T20:20:28.904Z,99.90
2023-05-20T20:23:00.639Z,99.90
2023-05-20T20:25:32.414Z,99.90
2023-05-20T20:28:04.466Z,99.90
2023-05-20T20:30:36.218Z,99.90
2023-05-20T20:33:09.330Z,99.90
2023-05-20T20:35:41.177Z,99.90
2023-05-20T20:38:12.908Z,99.90
2023-05-20T20:40:44.635Z,99.90
2023-05-20T20:43:17.668Z,99.90
2023-05-20T20:45:51.533Z,99.90
2023-05-20T20:48:24.612Z,99.90
2023-05-20T20:50:56.350Z,99.90
2023-05-20T20:53:28.060Z,99.90
2023-05-20T20:55:59.793Z,99.90
2023-05-20T20:58:31.531Z,99.90
2023-05-20T21:01:03.493Z,99.90
2023-05-20T21:03:36.583Z,99.90
2023-05-20T21:06:08.321Z,99.90
2023-05-20T21:08:40.043Z,99.90
2023-05-20T21:11:11.829Z,99.90
2023-05-20T21:13:43.601Z,99.90
2023-05-20T21:16:15.393Z,99.90
2023-05-20T21:18:48.542Z,99.90
2023-05-20T21:21:20.323Z,99.90
2023-05-20T21:23:52.049Z,99.90
2023-05-20T21:26:23.796Z,99.90
2023-05-20T21:28:55.534Z,99.90
2023-05-20T21:31:27.266Z,99.90
2023-05-20T21:34:00.423Z,99.90
2023-05-20T21:39:04.363Z,99.90
2023-05-20T21:41:36.090Z,99.90
2023-05-20T21:44:07.818Z,99.90
2023-05-20T21:46:39.583Z,99.90
2023-05-20T21:49:12.655Z,99.90
2023-05-20T21:51:44.428Z,99.90
2023-05-20T21:54:16.134Z,99.90
2023-05-20T21:56:47.882Z,99.90
2023-05-20T21:59:19.602Z,99.90
